Terminal Aerodrome Forecast
Issued by NWS Blacksburg, VA

Home | Current Version | Previous Version | Text Only | Print | Product List | Glossary On
Versions: 1 2 3 4 5 6 7 8 9 10 11 12 13 14 15 16 17 18 19 20 21 22 23 24 25 26 27 28 29 30 31 32 33 34
787
FTUS41 KRNK 100520
TAFBLF
TAF
KBLF 100520Z 1006/1106 29005KT P6SM SCT030
      TEMPO 1006/1010 BKN020
     FM101600 28007KT P6SM FEW150
     FM110000 00000KT P6SM SCT120=

USA.gov is the U.S. government's official web portal to all federal, state and local government web resources and services.